Time;durP1;ratioP1;P1;durP2;ratioP2;P2;SDS_P1;SDS_P2;PMS_P1;PMS_P2;Temp;Humidity;BMP_temperature;BMP_pressure;BME280_temperature;BME280_humidity;BME280_pressure;Samples;Min_cycle;Max_cycle;Signal;HPM_P1;HPM_P2
2022/09/18 00:01:17;;;;;;;5.70;1.50;;;;;;;7.97;73.77;94035.03;5009363;28;20076;-66
2022/09/18 00:03:45;;;;;;;5.30;1.40;;;;;;;7.85;74.84;94032.75;5008140;28;20050;-66
2022/09/18 00:06:19;;;;;;;4.68;1.75;;;;;;;7.92;73.96;94042.88;5009324;28;20072;-65
2022/09/18 00:08:48;;;;;;;3.57;1.27;;;;;;;7.71;75.36;94039.03;5008536;28;20048;-69
2022/09/18 00:11:15;;;;;;;4.38;1.40;;;;;;;7.93;75.46;94041.69;5009287;28;20491;-69
2022/09/18 00:13:42;;;;;;;4.65;1.50;;;;;;;7.82;76.33;94051.88;5009606;28;20049;-66
2022/09/18 00:16:12;;;;;;;4.28;1.40;;;;;;;7.93;75.81;94038.97;5011010;28;20061;-66
2022/09/18 00:18:39;;;;;;;5.30;2.10;;;;;;;7.89;76.65;94047.16;5012968;28;20727;-66
2022/09/18 00:21:09;;;;;;;3.33;1.63;;;;;;;7.67;77.07;94038.25;5011338;28;20411;-69
2022/09/18 00:23:36;;;;;;;4.13;1.60;;;;;;;7.77;77.47;94040.19;5012912;28;20037;-66
2022/09/18 00:26:04;;;;;;;3.40;1.50;;;;;;;7.97;76.14;94028.81;5013162;28;20107;-65
2022/09/18 00:28:31;;;;;;;5.60;1.73;;;;;;;7.92;76.69;94026.47;5012332;28;20712;-65
2022/09/18 00:31:10;;;;;;;4.78;1.60;;;;;;;7.97;76.50;94026.06;5012778;28;20042;-65
2022/09/18 00:33:38;;;;;;;3.23;1.50;;;;;;;7.92;76.20;94023.72;5011933;28;20700;-65
2022/09/18 00:36:09;;;;;;;3.38;1.40;;;;;;;7.82;76.12;94014.41;5006925;28;20046;-63
2022/09/18 00:38:36;;;;;;;3.83;1.80;;;;;;;7.63;77.56;94025.78;4997586;28;20048;-67
2022/09/18 00:41:06;;;;;;;3.78;1.60;;;;;;;7.68;78.25;94020.66;5009077;28;20446;-69
2022/09/18 00:43:34;;;;;;;3.10;1.58;;;;;;;7.43;79.00;94023.47;5012092;28;21800;-68
2022/09/18 00:46:06;;;;;;;5.43;1.70;;;;;;;7.39;79.26;94019.97;5012456;28;20048;-69
2022/09/18 00:48:45;;;;;;;4.30;1.60;;;;;;;7.46;78.51;94025.41;5011822;28;20399;-65
2022/09/18 00:51:14;;;;;;;4.60;1.85;;;;;;;7.47;78.73;94026.19;5011939;28;20053;-65
2022/09/18 00:53:49;;;;;;;2.78;1.60;;;;;;;7.50;78.46;94036.31;5012316;28;20068;-65
2022/09/18 00:56:16;;;;;;;4.15;1.77;;;;;;;7.50;78.27;94036.31;5011841;28;20116;-68
2022/09/18 00:58:44;;;;;;;3.10;1.47;;;;;;;7.31;79.94;94029.34;5012226;28;20038;-67
2022/09/18 01:01:11;;;;;;;3.50;1.75;;;;;;;7.22;80.79;94037.13;5012311;28;20042;-67
2022/09/18 01:03:38;;;;;;;3.55;1.80;;;;;;;7.27;80.15;94040.25;5011994;28;20103;-65
2022/09/18 01:06:14;;;;;;;4.18;1.80;;;;;;;7.24;80.59;94037.53;5011982;28;20053;-63
2022/09/18 01:08:57;;;;;;;7.20;1.80;;;;;;;7.23;80.01;94036.75;5012050;28;20041;-65
2022/09/18 01:11:40;;;;;;;4.00;1.80;;;;;;;7.23;80.32;94039.47;5011732;28;20450;-66
2022/09/18 01:14:31;;;;;;;3.83;1.88;;;;;;;7.00;82.01;94031.66;5011388;28;20045;-65
2022/09/18 01:17:08;;;;;;;4.55;1.88;;;;;;;6.97;81.69;94029.75;5011864;28;20038;-67
2022/09/18 01:19:56;;;;;;;5.80;2.28;;;;;;;7.00;81.92;94028.94;5011469;28;20092;-65
2022/09/18 01:22:29;;;;;;;4.95;2.30;;;;;;;7.01;82.01;94027.78;5011702;28;20053;-66
2022/09/18 01:25:33;;;;;;;6.27;2.27;;;;;;;6.97;81.71;94018.81;5011871;28;20038;-65
2022/09/18 01:28:17;;;;;;;4.38;2.30;;;;;;;7.10;82.08;94017.28;5010302;28;20135;-65
2022/09/18 01:30:46;;;;;;;3.63;2.15;;;;;;;7.10;81.59;94024.66;5010657;28;20673;-65
2022/09/18 01:33:30;;;;;;;5.38;2.10;;;;;;;6.89;82.08;94012.59;5011152;28;20049;-66
2022/09/18 01:36:03;;;;;;;4.88;2.50;;;;;;;6.93;81.91;94012.59;5011468;28;20053;-68
2022/09/18 01:38:39;;;;;;;6.70;2.40;;;;;;;7.03;81.86;94011.81;5010632;28;20648;-68
2022/09/18 01:41:22;;;;;;;3.92;2.10;;;;;;;7.04;81.65;94015.31;5010254;28;20045;-65
2022/09/18 01:43:58;;;;;;;5.65;2.10;;;;;;;6.99;81.92;94016.50;5012070;28;20040;-65
2022/09/18 01:46:25;;;;;;;4.72;2.30;;;;;;;7.01;82.01;94008.69;5011029;28;20095;-65
2022/09/18 01:49:15;;;;;;;7.32;3.20;;;;;;;7.00;82.43;94002.47;5010929;28;20049;-65
2022/09/18 01:52:00;;;;;;;5.53;2.70;;;;;;;7.10;80.80;94008.28;5010209;28;21736;-65
2022/09/18 01:54:31;;;;;;;6.22;2.83;;;;;;;7.09;80.15;94007.50;5011029;28;20046;-65
2022/09/18 01:57:07;;;;;;;6.05;2.60;;;;;;;6.98;80.59;94004.81;5000445;28;20487;-65
2022/09/18 01:59:42;;;;;;;5.15;1.95;;;;;;;6.94;80.62;93995.84;5010518;28;20046;-66
2022/09/18 02:02:44;;;;;;;5.40;2.33;;;;;;;6.99;81.04;94002.84;5010958;28;20045;-68
2022/09/18 02:05:18;;;;;;;4.60;1.93;;;;;;;6.99;80.31;94000.13;4991682;28;20047;-65
2022/09/18 02:07:53;;;;;;;4.22;2.15;;;;;;;7.00;80.78;93997.00;5010854;28;20046;-66
2022/09/18 02:10:23;;;;;;;3.95;1.95;;;;;;;7.00;81.02;94005.19;5010695;28;20574;-66
2022/09/18 02:12:52;;;;;;;4.40;2.20;;;;;;;6.95;80.19;94005.56;5010975;28;20111;-66
2022/09/18 02:15:22;;;;;;;3.75;2.10;;;;;;;6.98;80.26;94004.00;5010443;28;20461;-66
2022/09/18 02:18:00;;;;;;;6.10;2.07;;;;;;;6.86;80.81;94007.13;5010662;28;20045;-66
2022/09/18 02:20:29;;;;;;;5.57;2.30;;;;;;;6.83;81.16;93997.00;5010653;28;20045;-65
2022/09/18 02:23:01;;;;;;;6.43;2.28;;;;;;;6.80;82.11;94002.06;5010528;28;20050;-65
2022/09/18 02:25:44;;;;;;;5.35;2.20;;;;;;;6.73;81.67;94004.00;5010487;28;20048;-65
2022/09/18 02:28:16;;;;;;;4.60;2.20;;;;;;;6.63;82.38;94010.22;5010235;28;20053;-65
2022/09/18 02:30:42;;;;;;;4.73;2.20;;;;;;;6.70;81.68;94002.03;5010603;28;20050;-68
2022/09/18 02:33:41;;;;;;;7.97;1.90;;;;;;;6.53;81.90;94001.63;5010421;28;20041;-65
2022/09/18 02:36:33;;;;;;;6.50;2.25;;;;;;;6.55;82.41;94004.75;4989724;28;20045;-65
2022/09/18 02:39:20;;;;;;;5.43;2.00;;;;;;;6.60;82.08;94001.66;5008531;28;20054;-67
2022/09/18 02:41:50;;;;;;;5.32;2.60;;;;;;;6.55;81.64;93995.81;5002213;28;20045;-68
2022/09/18 02:44:44;;;;;;;4.90;2.20;;;;;;;6.49;82.65;94002.81;5010490;28;20046;-65
2022/09/18 02:47:16;;;;;;;5.13;2.38;;;;;;;6.51;82.00;94006.69;5009910;28;20461;-66
2022/09/18 02:50:24;;;;;;;4.72;2.10;;;;;;;6.41;82.58;94007.47;5010519;28;20052;-65
2022/09/18 02:53:17;;;;;;;4.15;2.20;;;;;;;6.03;84.88;94006.97;5009470;28;21517;-67
2022/09/18 02:55:54;;;;;;;6.88;2.30;;;;;;;6.33;83.97;94011.34;5009401;28;20046;-65
2022/09/18 02:58:29;;;;;;;6.80;3.40;;;;;;;6.39;83.17;93996.94;4995315;28;20042;-65
2022/09/18 03:00:59;;;;;;;10.23;3.47;;;;;;;6.46;82.87;93998.13;5008776;28;20056;-69
2022/09/18 03:03:29;;;;;;;5.82;2.20;;;;;;;6.19;83.56;93996.50;5009558;28;20088;-65
2022/09/18 03:05:56;;;;;;;5.53;2.30;;;;;;;6.25;83.20;94004.31;5010145;28;20050;-65
2022/09/18 03:08:23;;;;;;;5.07;2.17;;;;;;;6.11;83.67;94005.81;5009947;28;20407;-67
2022/09/18 03:10:50;;;;;;;6.33;2.10;;;;;;;6.08;84.05;94008.56;5009915;28;20124;-68
2022/09/18 03:13:17;;;;;;;3.85;2.00;;;;;;;6.16;83.71;94004.69;5009811;28;20042;-66
2022/09/18 03:15:43;;;;;;;5.50;2.00;;;;;;;6.20;83.42;94000.03;5009985;28;20057;-71
2022/09/18 03:18:10;;;;;;;6.53;2.17;;;;;;;6.27;83.25;94008.22;5009983;28;20438;-65
2022/09/18 03:20:37;;;;;;;5.22;2.20;;;;;;;6.28;82.79;93998.88;5009973;28;20503;-65
2022/09/18 03:23:03;;;;;;;4.63;2.13;;;;;;;6.26;83.10;94009.38;5009750;28;20535;-67
2022/09/18 03:25:30;;;;;;;3.13;1.90;;;;;;;6.20;83.68;94005.47;5009324;28;20406;-65
2022/09/18 03:27:56;;;;;;;3.55;2.20;;;;;;;6.19;84.07;94006.63;5009936;28;20484;-65
2022/09/18 03:30:23;;;;;;;5.68;2.25;;;;;;;6.17;84.24;93998.06;5009719;28;20050;-65
2022/09/18 03:32:50;;;;;;;4.30;2.00;;;;;;;6.20;83.47;93994.59;5009770;28;20561;-65
2022/09/18 03:35:17;;;;;;;5.90;2.30;;;;;;;6.22;83.51;93988.72;5009605;28;20457;-65
2022/09/18 03:37:44;;;;;;;3.58;1.70;;;;;;;6.24;82.53;93989.91;5010065;28;20046;-71
2022/09/18 03:40:10;;;;;;;4.45;2.17;;;;;;;6.36;82.40;93989.56;5006299;28;20383;-65
2022/09/18 03:42:37;;;;;;;3.97;1.90;;;;;;;6.34;82.46;93985.66;5010610;28;20403;-65
2022/09/18 03:45:05;;;;;;;3.63;2.13;;;;;;;6.33;82.35;93989.53;5004630;28;20046;-62
2022/09/18 03:47:31;;;;;;;6.50;1.97;;;;;;;6.35;81.61;93993.44;5008573;28;20045;-65
2022/09/18 03:50:04;;;;;;;5.57;1.98;;;;;;;6.34;81.81;93997.34;5009996;28;20034;-65
2022/09/18 03:52:31;;;;;;;4.40;2.10;;;;;;;6.33;82.22;93998.50;5011578;28;20049;-65
2022/09/18 03:54:58;;;;;;;5.97;1.95;;;;;;;6.38;81.29;93995.41;5012138;28;20053;-65
2022/09/18 03:57:24;;;;;;;4.90;2.13;;;;;;;6.36;81.35;93994.22;5013113;28;20179;-66
2022/09/18 03:59:51;;;;;;;4.73;1.87;;;;;;;6.43;81.55;93998.91;5013366;28;20561;-65
2022/09/18 04:02:18;;;;;;;6.22;2.00;;;;;;;6.44;82.09;93997.72;5013287;28;20079;-65
2022/09/18 04:04:44;;;;;;;5.63;2.13;;;;;;;6.38;82.00;93992.66;5013325;28;20458;-65
2022/09/18 04:07:11;;;;;;;3.88;1.70;;;;;;;6.32;82.25;93983.31;5013457;28;20099;-65
2022/09/18 04:09:38;;;;;;;3.58;1.92;;;;;;;6.37;82.11;93979.41;5013221;28;20662;-65
2022/09/18 04:12:05;;;;;;;5.50;2.23;;;;;;;6.36;82.01;93981.38;5012331;28;20697;-67
2022/09/18 04:14:32;;;;;;;4.70;2.22;;;;;;;6.33;82.24;93987.59;5013318;28;20479;-65
2022/09/18 04:16:59;;;;;;;4.78;1.95;;;;;;;6.31;82.32;93989.16;5012873;28;20050;-64
2022/09/18 04:19:25;;;;;;;4.45;2.10;;;;;;;6.29;82.68;93992.25;5013017;28;20063;-65
2022/09/18 04:21:52;;;;;;;4.85;2.05;;;;;;;6.43;82.30;93993.44;5013164;28;20037;-65
2022/09/18 04:24:19;;;;;;;3.90;1.70;;;;;;;6.54;82.01;93996.97;5012891;28;20372;-65
2022/09/18 04:26:46;;;;;;;3.30;1.90;;;;;;;6.58;81.93;94003.22;5013160;28;20048;-68
2022/09/18 04:29:13;;;;;;;5.43;1.98;;;;;;;6.70;81.21;94002.84;5012531;28;20040;-66
2022/09/18 04:31:40;;;;;;;3.80;1.80;;;;;;;6.76;80.95;94005.94;5013024;28;20073;-65
2022/09/18 04:34:07;;;;;;;3.70;1.85;;;;;;;6.76;80.55;94001.28;5012358;28;20368;-63
2022/09/18 04:36:34;;;;;;;6.80;1.90;;;;;;;6.65;81.39;94005.16;5013075;28;20045;-65
2022/09/18 04:39:01;;;;;;;3.83;1.85;;;;;;;6.77;80.86;94005.56;5010957;28;20053;-68
2022/09/18 04:41:29;;;;;;;4.22;1.85;;;;;;;6.84;80.49;94009.47;5012362;28;20042;-67
2022/09/18 04:43:55;;;;;;;3.95;1.77;;;;;;;6.82;80.34;94009.06;5013358;28;20396;-68
2022/09/18 04:46:22;;;;;;;5.07;1.90;;;;;;;6.83;80.73;94000.50;5012100;28;20042;-67
2022/09/18 04:48:49;;;;;;;3.97;1.80;;;;;;;6.92;80.47;94013.75;5012457;28;20050;-72
2022/09/18 04:51:16;;;;;;;5.55;1.85;;;;;;;6.96;80.66;94015.31;5012289;28;20048;-64
2022/09/18 04:53:42;;;;;;;3.65;2.17;;;;;;;6.93;79.98;94013.38;5012728;28;20384;-64
2022/09/18 04:56:09;;;;;;;4.15;1.92;;;;;;;6.90;81.30;94022.34;5011837;28;20103;-64
2022/09/18 04:58:36;;;;;;;4.70;2.00;;;;;;;7.01;81.36;94014.16;5012658;28;20285;-66
2022/09/18 05:01:03;;;;;;;4.33;2.00;;;;;;;7.11;80.78;94027.00;5012273;28;20419;-65
2022/09/18 05:03:29;;;;;;;5.10;2.00;;;;;;;7.12;80.32;94025.03;4993163;28;20697;-64
2022/09/18 05:05:56;;;;;;;3.85;2.10;;;;;;;7.08;80.01;94027.00;5012039;28;20053;-65
2022/09/18 05:08:23;;;;;;;5.18;2.30;;;;;;;7.06;79.92;94023.88;5011575;28;20046;-68
2022/09/18 05:10:49;;;;;;;4.97;2.38;;;;;;;7.02;80.89;94032.06;5012143;28;20495;-72
2022/09/18 05:13:16;;;;;;;5.93;2.60;;;;;;;7.07;79.68;94030.91;5011738;28;20046;-65
2022/09/18 05:15:43;;;;;;;5.20;2.30;;;;;;;7.10;79.42;94038.31;5012193;28;20050;-65
2022/09/18 05:18:11;;;;;;;4.07;2.03;;;;;;;7.02;80.55;94039.47;5011508;28;20033;-65
2022/09/18 05:20:38;;;;;;;3.92;1.92;;;;;;;7.13;79.73;94040.28;5012184;28;20056;-65
2022/09/18 05:23:05;;;;;;;4.63;2.08;;;;;;;7.08;79.25;94040.66;5011472;28;20042;-66
2022/09/18 05:25:32;;;;;;;4.57;2.00;;;;;;;7.11;79.58;94039.88;5011996;28;20052;-65
2022/09/18 05:28:01;;;;;;;3.85;2.03;;;;;;;7.10;79.96;94044.56;5011753;28;20046;-65
2022/09/18 05:30:29;;;;;;;4.35;2.20;;;;;;;7.20;79.28;94045.72;5011425;28;20042;-64
2022/09/18 05:32:58;;;;;;;4.07;2.13;;;;;;;7.20;79.51;94045.72;5011475;28;20049;-65
2022/09/18 05:35:27;;;;;;;3.85;1.80;;;;;;;7.23;78.54;94042.22;5011260;28;20041;-66
2022/09/18 05:37:55;;;;;;;6.20;1.93;;;;;;;7.16;79.92;94040.28;5011456;28;20050;-64
2022/09/18 05:40:23;;;;;;;5.20;2.00;;;;;;;7.19;79.69;94038.69;5011174;28;20398;-65
2022/09/18 05:42:54;;;;;;;4.70;2.10;;;;;;;7.16;79.77;94043.00;5011694;28;20503;-66
2022/09/18 05:45:21;;;;;;;3.97;1.60;;;;;;;7.29;78.65;94042.59;5010972;28;20049;-65
2022/09/18 05:47:55;;;;;;;4.07;2.00;;;;;;;7.35;78.82;94051.97;5011679;28;20053;-67
2022/09/18 05:50:22;;;;;;;4.47;1.90;;;;;;;7.24;78.62;94041.03;5010841;28;20042;-65
2022/09/18 05:53:07;;;;;;;3.85;2.08;;;;;;;7.30;79.33;94046.88;5011358;28;20050;-65
2022/09/18 05:55:34;;;;;;;5.90;2.03;;;;;;;7.38;78.54;94043.78;5010632;28;20423;-67
2022/09/18 05:58:02;;;;;;;4.75;2.50;;;;;;;7.30;78.30;94050.38;5011218;28;20037;-66
2022/09/18 06:00:31;;;;;;;5.10;2.38;;;;;;;7.29;79.37;94048.06;5010628;28;20402;-66
2022/09/18 06:03:00;;;;;;;5.80;1.90;;;;;;;7.27;79.24;94040.25;5011077;28;20046;-66
2022/09/18 06:05:29;;;;;;;4.03;1.90;;;;;;;7.48;79.00;94050.38;5010742;28;20381;-66
2022/09/18 06:08:00;;;;;;;5.03;2.60;;;;;;;7.50;79.08;94048.03;5011063;28;20380;-66
2022/09/18 06:10:28;;;;;;;7.75;2.22;;;;;;;7.58;78.07;94048.78;5007159;28;20046;-65
2022/09/18 06:13:03;;;;;;;4.65;2.05;;;;;;;7.61;79.36;94048.03;5002314;28;20439;-65
2022/09/18 06:15:31;;;;;;;5.00;2.03;;;;;;;7.60;78.31;94036.28;5010201;28;20521;-66
2022/09/18 06:17:58;;;;;;;4.97;2.15;;;;;;;7.68;78.02;94039.03;5010770;28;20042;-65
2022/09/18 06:20:25;;;;;;;3.83;1.85;;;;;;;7.62;78.09;94035.13;5010791;28;20419;-66
2022/09/18 06:22:52;;;;;;;4.72;1.75;;;;;;;7.61;76.90;94039.81;5010913;28;20403;-67
2022/09/18 06:25:20;;;;;;;5.47;1.90;;;;;;;7.63;77.25;94036.72;5010495;28;20091;-65
2022/09/18 06:27:52;;;;;;;4.77;2.20;;;;;;;7.61;77.36;94034.38;5010739;28;20045;-66
2022/09/18 06:30:19;;;;;;;4.35;1.70;;;;;;;7.56;77.44;94035.53;5010433;28;20388;-66
2022/09/18 06:32:45;;;;;;;4.20;1.98;;;;;;;7.69;77.63;94032.41;5010774;28;20411;-68
2022/09/18 06:35:12;;;;;;;4.38;1.83;;;;;;;8.13;76.19;94039.25;5008358;28;20037;-66
2022/09/18 06:37:39;;;;;;;3.35;1.80;;;;;;;8.36;75.11;94039.56;5010747;28;20046;-66
2022/09/18 06:40:06;;;;;;;4.63;2.00;;;;;;;8.32;74.88;94044.25;5009805;28;20450;-66
2022/09/18 06:42:32;;;;;;;4.78;1.67;;;;;;;8.56;74.14;94050.03;5010922;28;20493;-66
2022/09/18 06:44:59;;;;;;;4.93;2.00;;;;;;;8.28;74.85;94046.25;5008902;28;20045;-67
2022/09/18 06:47:26;;;;;;;3.08;1.50;;;;;;;8.31;74.69;94044.66;5010272;28;20037;-65
2022/09/18 06:49:53;;;;;;;3.88;1.75;;;;;;;8.59;74.09;94044.56;5010641;28;20383;-65
2022/09/18 06:52:19;;;;;;;7.77;3.80;;;;;;;8.77;73.29;94052.66;5008377;28;20076;-66
2022/09/18 06:54:46;;;;;;;6.65;3.30;;;;;;;9.31;71.77;94046.00;5010508;28;20052;-66
2022/09/18 06:57:12;;;;;;;5.63;1.90;;;;;;;9.26;70.04;94046.47;5009715;28;20049;-69
2022/09/18 06:59:39;;;;;;;10.65;4.35;;;;;;;9.30;70.14;94039.00;5010494;28;20048;-65
2022/09/18 07:02:11;;;;;;;7.43;2.95;;;;;;;9.06;71.16;94043.47;5009544;28;20292;-66
2022/09/18 07:04:45;;;;;;;5.97;2.43;;;;;;;9.10;71.21;94047.75;5010199;28;20380;-65
2022/09/18 07:07:12;;;;;;;4.22;1.70;;;;;;;8.98;71.84;94046.25;5008430;28;20063;-66
2022/09/18 07:09:39;;;;;;;5.53;1.52;;;;;;;9.17;71.01;94050.41;5008566;28;20069;-66
2022/09/18 07:12:06;;;;;;;5.03;1.48;;;;;;;9.26;70.39;94039.00;5010216;28;20483;-65
2022/09/18 07:14:32;;;;;;;4.82;1.70;;;;;;;9.44;69.66;94043.53;5010381;28;20041;-67
2022/09/18 07:16:59;;;;;;;5.03;1.50;;;;;;;8.91;71.75;94038.09;5008558;28;20034;-65
2022/09/18 07:19:25;;;;;;;4.63;1.80;;;;;;;9.35;70.20;94050.25;5009848;28;20049;-65
2022/09/18 07:21:52;;;;;;;4.68;1.92;;;;;;;10.04;68.10;94044.94;5009776;28;20426;-66
2022/09/18 07:24:19;;;;;;;4.28;1.58;;;;;;;9.79;67.41;94036.94;5007791;28;20038;-67
2022/09/18 07:26:46;;;;;;;3.83;1.50;;;;;;;11.54;63.69;94038.53;5013276;28;20038;-66
2022/09/18 07:29:12;;;;;;;4.37;1.10;;;;;;;13.35;57.08;94037.28;5013627;28;20561;-64
2022/09/18 07:31:39;;;;;;;3.60;1.27;;;;;;;12.87;58.44;94035.97;5013902;28;20050;-64
2022/09/18 07:34:07;;;;;;;2.85;1.10;;;;;;;15.83;49.40;94031.00;5011768;28;20034;-66
2022/09/18 07:36:34;;;;;;;2.63;1.10;;;;;;;17.12;47.15;94034.75;5013950;28;20455;-68
2022/09/18 07:39:01;;;;;;;2.90;1.20;;;;;;;19.29;42.09;94041.06;5012614;28;20046;-67
2022/09/18 07:41:27;;;;;;;4.73;1.00;;;;;;;20.14;38.87;94040.94;5013459;28;20056;-66
2022/09/18 07:43:54;;;;;;;2.90;1.00;;;;;;;18.60;40.98;94048.16;5013819;28;20406;-65
2022/09/18 07:46:21;;;;;;;3.50;0.93;;;;;;;20.43;37.46;94042.31;5012737;28;20052;-65
2022/09/18 07:48:48;;;;;;;3.08;0.80;;;;;;;18.36;40.55;94048.75;5013398;28;20044;-65
2022/09/18 07:51:15;;;;;;;2.70;0.70;;;;;;;16.73;44.69;94050.81;5011736;28;20498;-67
2022/09/18 07:53:41;;;;;;;3.00;0.87;;;;;;;17.00;44.27;94052.22;5013776;28;20046;-65
2022/09/18 07:56:09;;;;;;;3.30;0.93;;;;;;;16.76;43.95;94055.47;5012929;28;20049;-65
2022/09/18 07:58:37;;;;;;;2.97;0.93;;;;;;;14.29;49.75;94058.53;5013552;28;20056;-69
2022/09/18 08:01:05;;;;;;;3.20;0.90;;;;;;;14.70;49.47;94072.81;5013125;28;20479;-66
2022/09/18 08:03:32;;;;;;;3.22;1.05;;;;;;;13.79;51.85;94066.13;5027659;28;21590;-65
2022/09/18 08:06:03;;;;;;;3.10;0.97;;;;;;;13.53;52.79;94062.44;5013136;28;20034;-65
2022/09/18 08:08:30;;;;;;;4.05;1.00;;;;;;;12.82;54.38;94072.28;5012406;28;20041;-70
2022/09/18 08:10:56;;;;;;;3.08;1.02;;;;;;;13.32;53.14;94062.94;5005004;28;20052;-66
2022/09/18 08:13:23;;;;;;;2.20;0.80;;;;;;;12.15;57.00;94062.22;5010368;28;20431;-66
2022/09/18 08:15:50;;;;;;;2.80;1.20;;;;;;;12.64;55.35;94073.44;5013074;28;20037;-65
2022/09/18 08:18:20;;;;;;;3.20;1.30;;;;;;;12.85;54.55;94068.69;5012671;28;20052;-67
2022/09/18 08:20:46;;;;;;;3.65;1.30;;;;;;;11.76;56.58;94063.69;5013212;28;20042;-66
2022/09/18 08:23:13;;;;;;;3.00;1.17;;;;;;;12.22;56.75;94059.34;5012128;28;20049;-65
2022/09/18 08:25:41;;;;;;;3.28;1.00;;;;;;;12.47;55.95;94080.09;5013051;28;20064;-65
2022/09/18 08:28:08;;;;;;;3.08;1.20;;;;;;;11.94;56.53;94071.66;5012171;28;20091;-66
2022/09/18 08:30:35;;;;;;;2.57;0.77;;;;;;;11.77;57.28;94079.78;5012958;28;20123;-66
2022/09/18 08:33:06;;;;;;;3.38;1.05;;;;;;;11.55;58.05;94076.59;5012485;28;20033;-72
2022/09/18 08:35:33;;;;;;;4.00;1.05;;;;;;;11.71;57.42;94078.69;5011431;28;20054;-66
2022/09/18 08:38:01;;;;;;;2.97;1.00;;;;;;;11.43;58.14;94087.38;5011620;28;20038;-66
2022/09/18 08:40:49;;;;;;;2.80;0.95;;;;;;;11.07;59.85;94085.22;5012145;28;20050;-65
2022/09/18 08:43:15;;;;;;;2.23;0.80;;;;;;;11.36;58.42;94080.03;5012024;28;20049;-65
2022/09/18 08:46:01;;;;;;;2.25;0.80;;;;;;;11.33;58.68;94083.63;5012261;28;20407;-66
2022/09/18 08:48:33;;;;;;;3.88;1.50;;;;;;;11.42;58.54;94078.38;5012302;28;20403;-65
2022/09/18 08:51:12;;;;;;;3.13;1.15;;;;;;;11.03;59.63;94074.25;5012734;28;20041;-65
2022/09/18 08:53:44;;;;;;;3.38;1.10;;;;;;;11.10;59.94;94079.63;5011660;28;20642;-64
2022/09/18 08:56:17;;;;;;;3.47;1.00;;;;;;;11.10;59.91;94082.38;5011892;28;20073;-65
2022/09/18 08:58:53;;;;;;;4.30;1.20;;;;;;;10.76;61.09;94077.75;5012812;28;20038;-64
2022/09/18 09:01:21;;;;;;;3.95;1.00;;;;;;;10.24;62.11;94088.16;5011753;28;20050;-68
2022/09/18 09:04:27;;;;;;;3.75;1.40;;;;;;;10.33;62.83;94091.25;5012476;28;20138;-65
2022/09/18 09:07:12;;;;;;;3.80;1.20;;;;;;;10.75;61.77;94086.41;4987126;28;20431;-69
2022/09/18 09:10:20;;;;;;;3.00;1.03;;;;;;;10.81;61.43;94086.75;5007623;28;20057;-65
2022/09/18 09:13:08;;;;;;;2.85;1.15;;;;;;;10.87;61.60;94082.34;5002998;28;20160;-68
2022/09/18 09:15:57;;;;;;;4.53;1.20;;;;;;;11.10;60.93;94092.59;5011067;28;21587;-66
2022/09/18 09:18:33;;;;;;;3.90;1.00;;;;;;;10.86;62.07;94089.00;5010998;28;20532;-64
2022/09/18 09:21:21;;;;;;;2.92;1.15;;;;;;;11.09;60.73;94099.31;5012207;28;20140;-64
2022/09/18 09:23:51;;;;;;;2.97;1.00;;;;;;;11.19;60.20;94098.38;5011355;28;20803;-64
2022/09/18 09:26:21;;;;;;;2.85;1.20;;;;;;;11.09;61.40;94100.06;5011285;28;20058;-67
2022/09/18 09:29:00;;;;;;;3.80;1.40;;;;;;;11.17;61.30;94104.28;5010526;28;20046;-64
2022/09/18 09:31:34;;;;;;;3.40;1.10;;;;;;;10.83;61.62;94096.13;5011370;28;20042;-64
2022/09/18 09:34:10;;;;;;;3.13;1.60;;;;;;;11.02;60.93;94094.66;5002273;28;20050;-63
2022/09/18 09:36:40;;;;;;;4.43;1.73;;;;;;;10.80;60.96;94096.94;5010892;28;20871;-64
2022/09/18 09:39:16;;;;;;;6.00;2.70;;;;;;;11.08;61.12;94098.50;5010975;28;20042;-64
2022/09/18 09:41:57;;;;;;;3.38;1.25;;;;;;;11.09;60.37;94102.81;5011767;28;20061;-64
2022/09/18 09:44:30;;;;;;;3.05;0.98;;;;;;;11.10;59.78;94087.88;5010846;28;20418;-65
2022/09/18 09:47:17;;;;;;;3.22;1.15;;;;;;;11.24;59.50;94088.88;5011352;28;20077;-66
2022/09/18 09:50:06;;;;;;;2.97;1.07;;;;;;;11.02;59.11;94086.44;5008976;28;20069;-65
2022/09/18 09:52:35;;;;;;;5.80;2.10;;;;;;;11.00;60.00;94089.59;5010597;28;20762;-65
2022/09/18 09:55:18;;;;;;;3.65;1.30;;;;;;;11.07;59.75;94085.22;5011300;28;20046;-65
2022/09/18 09:58:06;;;;;;;2.35;1.00;;;;;;;11.29;59.85;94091.94;5010600;28;20630;-65
2022/09/18 10:00:42;;;;;;;4.00;1.15;;;;;;;11.44;59.09;94089.72;5010390;28;20042;-65
2022/09/18 10:03:33;;;;;;;2.90;1.20;;;;;;;11.16;59.50;94091.72;5010814;28;20068;-67
2022/09/18 10:06:27;;;;;;;3.40;1.30;;;;;;;11.12;59.01;94092.97;5011299;28;20483;-64
2022/09/18 10:09:09;;;;;;;3.65;1.27;;;;;;;11.20;58.91;94086.94;5010327;28;20050;-68
2022/09/18 10:11:39;;;;;;;3.40;1.10;;;;;;;12.03;57.45;94076.59;5010254;28;20501;-65
2022/09/18 10:14:28;;;;;;;2.40;1.00;;;;;;;12.48;54.58;94078.91;5010554;28;20042;-68
2022/09/18 10:16:56;;;;;;;3.87;1.00;;;;;;;12.29;55.25;94074.94;5011170;28;20052;-69
2022/09/18 10:19:33;;;;;;;3.22;1.00;;;;;;;12.01;56.39;94071.50;5010027;28;20112;-67
2022/09/18 10:22:05;;;;;;;2.80;0.95;;;;;;;12.01;55.71;94071.50;5011257;28;20041;-66
2022/09/18 10:24:37;;;;;;;6.60;2.55;;;;;;;11.65;56.64;94068.56;5009645;28;21772;-67
2022/09/18 10:27:14;;;;;;;4.25;1.70;;;;;;;11.72;56.97;94069.25;5009644;28;20058;-63
2022/09/18 10:29:42;;;;;;;3.87;0.97;;;;;;;11.66;56.86;94070.16;5009783;28;20613;-64
2022/09/18 10:32:12;;;;;;;3.53;1.00;;;;;;;11.88;55.82;94065.06;5008874;28;20049;-70
2022/09/18 10:34:41;;;;;;;3.88;1.10;;;;;;;12.39;55.25;94074.75;5010577;28;20049;-64
2022/09/18 10:37:39;;;;;;;3.65;0.90;;;;;;;12.71;54.25;94061.50;5010314;28;20046;-64
2022/09/18 10:40:30;;;;;;;2.40;1.08;;;;;;;13.39;52.18;94057.25;5009303;28;20041;-66
2022/09/18 10:42:58;;;;;;;2.40;1.00;;;;;;;14.47;50.04;94051.75;5007064;28;20107;-66
2022/09/18 10:45:28;;;;;;;4.07;1.40;;;;;;;13.90;50.00;94051.28;5009595;28;20053;-69
2022/09/18 10:48:16;;;;;;;3.38;1.40;;;;;;;14.69;48.97;94047.19;5010265;28;20392;-65
2022/09/18 10:50:59;;;;;;;2.83;0.73;;;;;;;12.75;52.03;94046.44;5010002;28;20685;-66
2022/09/18 10:53:29;;;;;;;2.92;0.85;;;;;;;13.18;52.74;94053.78;5009743;28;20426;-65
2022/09/18 10:56:05;;;;;;;2.77;1.00;;;;;;;13.65;49.83;94060.97;5010453;28;20053;-70
2022/09/18 10:58:33;;;;;;;2.50;0.60;;;;;;;13.07;50.96;94053.22;4996490;28;20330;-67
2022/09/18 11:01:06;;;;;;;2.30;0.93;;;;;;;12.38;52.02;94047.63;5009106;28;20495;-65
2022/09/18 11:03:38;;;;;;;4.57;0.90;;;;;;;13.55;50.72;94048.22;4994519;28;20819;-65
2022/09/18 11:06:15;;;;;;;3.50;0.95;;;;;;;14.58;48.31;94046.69;5010008;28;20041;-63
2022/09/18 11:08:48;;;;;;;2.27;0.80;;;;;;;13.86;48.57;94036.81;5010599;28;20475;-66
2022/09/18 11:11:28;;;;;;;2.97;1.02;;;;;;;14.35;46.54;94040.22;5009292;28;20056;-66
2022/09/18 11:14:05;;;;;;;3.65;1.17;;;;;;;15.24;45.00;94030.53;5010013;28;20054;-66
2022/09/18 11:16:37;;;;;;;3.63;1.60;;;;;;;15.87;43.95;94019.84;5008984;28;20854;-64
2022/09/18 11:19:11;;;;;;;3.03;1.00;;;;;;;16.86;41.75;94022.25;4996083;28;20449;-65
2022/09/18 11:21:47;;;;;;;3.23;1.17;;;;;;;17.32;41.67;94014.91;5009352;28;21638;-65
2022/09/18 11:24:27;;;;;;;2.20;0.70;;;;;;;17.55;39.72;94023.94;5008203;28;20111;-68
2022/09/18 11:26:56;;;;;;;3.28;0.80;;;;;;;15.95;40.63;94021.91;5010256;28;20038;-64
2022/09/18 11:29:38;;;;;;;2.90;0.95;;;;;;;16.31;41.55;94020.66;5009330;28;20476;-64
2022/09/18 11:32:16;;;;;;;3.33;1.30;;;;;;;15.80;42.68;94020.09;5009770;28;20042;-62
2022/09/18 11:34:47;;;;;;;2.03;0.70;;;;;;;16.09;41.92;94008.78;5009734;28;20072;-66
2022/09/18 11:37:31;;;;;;;3.22;0.77;;;;;;;15.85;42.50;94003.66;5009088;28;20068;-64
2022/09/18 11:40:07;;;;;;;3.03;1.25;;;;;;;16.69;40.56;94007.84;5008579;28;20041;-70
2022/09/18 11:42:43;;;;;;;2.35;0.80;;;;;;;16.82;39.90;94011.34;5000791;28;20419;-65
2022/09/18 11:45:45;;;;;;;3.42;1.13;;;;;;;16.10;41.57;93999.28;5006023;28;20080;-65
2022/09/18 11:48:44;;;;;;;2.23;1.00;;;;;;;16.22;41.99;94000.44;5006432;28;20037;-67
2022/09/18 11:51:25;;;;;;;2.90;0.80;;;;;;;15.03;44.97;93989.72;5009897;28;20042;-64
2022/09/18 11:54:01;;;;;;;2.17;0.88;;;;;;;15.06;44.94;93989.63;5008485;28;20044;-67
2022/09/18 11:56:36;;;;;;;2.30;0.73;;;;;;;14.83;45.74;93985.22;5009037;28;20388;-64
2022/09/18 11:59:21;;;;;;;2.20;0.70;;;;;;;14.64;44.83;93984.19;5009657;28;20459;-65
2022/09/18 12:01:55;;;;;;;2.50;0.67;;;;;;;14.20;45.81;93992.13;5009036;28;20551;-68
2022/09/18 12:04:43;;;;;;;2.63;1.00;;;;;;;14.78;44.98;93983.75;5008682;28;20058;-66